createdAt,value
2023-05-06T00:00:51.361Z,99790.94
2023-05-06T00:03:18.493Z,99795.25
2023-05-06T00:05:46.360Z,99797.91
2023-05-06T00:08:13.502Z,99783.06
2023-05-06T00:10:40.454Z,99786.78
2023-05-06T00:13:08.415Z,99785.47
2023-05-06T00:15:36.498Z,99789.13
2023-05-06T00:18:03.766Z,99792.09
2023-05-06T00:20:31.437Z,99801.31
2023-05-06T00:22:59.472Z,99799.81
2023-05-06T00:25:26.436Z,99806.09
2023-05-06T00:27:53.777Z,99807.69
2023-05-06T00:30:23.295Z,99800.63
2023-05-06T00:32:50.546Z,99807.06
2023-05-06T00:35:17.533Z,99815.63
2023-05-06T00:37:46.851Z,99807.88
2023-05-06T00:40:14.458Z,99810.22
2023-05-06T00:42:41.930Z,99807.88
2023-05-06T00:45:09.816Z,99812.88
2023-05-06T00:47:37.338Z,99817.50
2023-05-06T00:50:04.876Z,99800.59
2023-05-06T00:52:32.157Z,99805.75
2023-05-06T00:54:59.430Z,99823.91
2023-05-06T00:57:26.731Z,99819.69
2023-05-06T00:59:54.607Z,99814.56
2023-05-06T01:02:21.940Z,99807.06
2023-05-06T01:04:49.541Z,99816.44
2023-05-06T01:07:42.795Z,99812.69
2023-05-06T01:10:20.515Z,99818.72
2023-05-06T01:13:06.284Z,99807.69
2023-05-06T01:15:38.883Z,99817.47
2023-05-06T01:18:10.325Z,99817.06
2023-05-06T01:20:38.518Z,99813.16
2023-05-06T01:23:13.184Z,99824.75
2023-05-06T01:25:40.793Z,99840.31
2023-05-06T01:28:10.597Z,99807.38
2023-05-06T01:30:53.074Z,99827.97
2023-05-06T01:33:47.082Z,99824.06
2023-05-06T01:36:42.349Z,99822.56
2023-05-06T01:39:21.153Z,99820.50
2023-05-06T01:41:49.684Z,99822.88
2023-05-06T01:44:17.494Z,99828.31
2023-05-06T01:46:45.909Z,99829.84
2023-05-06T01:49:14.678Z,99829.69
2023-05-06T01:51:41.695Z,99822.75
2023-05-06T01:54:08.710Z,99833.59
2023-05-06T01:56:35.781Z,99819.81
2023-05-06T01:59:03.139Z,99832.50
2023-05-06T02:01:31.035Z,99833.16
2023-05-06T02:03:58.189Z,99827.03
2023-05-06T02:06:25.382Z,99833.16
2023-05-06T02:08:52.445Z,99836.66
2023-05-06T02:11:22.914Z,99849.31
2023-05-06T02:13:53.046Z,99843.19
2023-05-06T02:16:22.016Z,99833.03
2023-05-06T02:18:49.797Z,99835.84
2023-05-06T02:21:17.009Z,99857.94
2023-05-06T02:23:44.035Z,99834.56
2023-05-06T02:26:11.133Z,99860.19
2023-05-06T02:28:38.338Z,99855.00
2023-05-06T02:31:06.009Z,99848.59
2023-05-06T02:33:33.118Z,99849.44
2023-05-06T02:36:00.122Z,99860.28
2023-05-06T02:38:27.136Z,99867.50
2023-05-06T02:40:54.262Z,99863.44
2023-05-06T02:43:23.177Z,99863.44
2023-05-06T02:45:50.485Z,99867.38
2023-05-06T02:48:17.561Z,99862.38
2023-05-06T02:50:44.951Z,99862.91
2023-05-06T02:53:13.367Z,99871.38
2023-05-06T02:55:40.680Z,99864.69
2023-05-06T02:58:07.751Z,99879.69
2023-05-06T03:00:34.964Z,99875.78
2023-05-06T03:03:02.082Z,99873.69
2023-05-06T03:05:29.113Z,99871.72
2023-05-06T03:07:56.941Z,99876.09
2023-05-06T03:10:24.197Z,99880.91
2023-05-06T03:12:51.490Z,99882.91
2023-05-06T03:15:18.653Z,99885.94
2023-05-06T03:17:47.609Z,99892.19
2023-05-06T03:20:14.905Z,99892.28
2023-05-06T03:22:47.977Z,99888.41
2023-05-06T03:25:15.372Z,99893.00
2023-05-06T03:27:42.973Z,99890.22
2023-05-06T03:30:17.764Z,99886.06
2023-05-06T03:32:47.926Z,99891.34
2023-05-06T03:35:23.532Z,99901.09
2023-05-06T03:37:55.631Z,99900.91
2023-05-06T03:40:25.467Z,99902.44
2023-05-06T03:42:53.324Z,99902.44
2023-05-06T03:45:22.602Z,99895.88
2023-05-06T03:47:49.887Z,99902.50
2023-05-06T03:50:19.238Z,99904.72
2023-05-06T03:52:46.665Z,99904.44
2023-05-06T03:55:14.566Z,99909.56
2023-05-06T03:57:41.912Z,99905.56
2023-05-06T04:00:10.556Z,99895.25
2023-05-06T04:02:44.013Z,99912.91
2023-05-06T04:05:18.513Z,99908.44
2023-05-06T04:07:46.286Z,99905.66
2023-05-06T04:10:16.290Z,99912.38
2023-05-06T04:12:48.155Z,99900.09
2023-05-06T04:15:20.980Z,99913.75
2023-05-06T04:17:49.253Z,99917.28
2023-05-06T04:20:16.622Z,99922.75
2023-05-06T04:22:43.728Z,99928.25
2023-05-06T04:25:12.398Z,99924.09
2023-05-06T04:27:40.801Z,99917.13
2023-05-06T04:30:10.300Z,99928.06
2023-05-06T04:32:38.931Z,99926.47
2023-05-06T04:35:07.776Z,99931.13
2023-05-06T04:37:35.941Z,99919.88
2023-05-06T04:40:12.330Z,99922.34
2023-05-06T04:42:41.374Z,99927.56
2023-05-06T04:45:14.535Z,99938.41
2023-05-06T04:47:45.299Z,99937.06
2023-05-06T04:50:15.761Z,99942.69
2023-05-06T04:52:45.450Z,99937.16
2023-05-06T04:55:14.049Z,99949.53
2023-05-06T04:57:48.083Z,99940.59
2023-05-06T05:00:16.586Z,99940.13
2023-05-06T05:02:43.699Z,99941.66
2023-05-06T05:05:14.838Z,99954.09
2023-05-06T05:07:44.873Z,99947.34
2023-05-06T05:10:12.156Z,99941.03
2023-05-06T05:12:39.463Z,99949.81
2023-05-06T05:15:10.608Z,99940.97
2023-05-06T05:17:38.678Z,99944.50
2023-05-06T05:20:08.942Z,99951.91
2023-05-06T05:22:37.395Z,99943.22
2023-05-06T05:25:08.623Z,99951.66
2023-05-06T05:27:39.510Z,99947.25
2023-05-06T05:30:07.466Z,99949.94
2023-05-06T05:32:43.571Z,99948.94
2023-05-06T05:35:12.036Z,99947.44
2023-05-06T05:37:41.364Z,99946.75
2023-05-06T05:40:20.490Z,99953.59
2023-05-06T05:42:55.828Z,99938.63
2023-05-06T05:45:29.933Z,99939.44
2023-05-06T05:47:57.873Z,99952.44
2023-05-06T05:50:28.146Z,99950.41
2023-05-06T05:52:59.899Z,99955.28
2023-05-06T05:55:29.440Z,99967.88
2023-05-06T05:57:56.442Z,99960.69
2023-05-06T06:00:25.194Z,99954.44
2023-05-06T06:03:01.668Z,99950.84
2023-05-06T06:05:28.941Z,99975.56
2023-05-06T06:08:02.939Z,99968.44
2023-05-06T06:10:49.488Z,99968.38
2023-05-06T06:13:43.157Z,99975.50
2023-05-06T06:16:11.489Z,99954.72
2023-05-06T06:18:38.777Z,99977.66
2023-05-06T06:21:06.299Z,99963.88
2023-05-06T06:23:33.423Z,99959.72
2023-05-06T06:26:01.550Z,99972.31
2023-05-06T06:28:47.577Z,99978.69
2023-05-06T06:31:35.025Z,99971.66
2023-05-06T06:34:06.552Z,99974.53
2023-05-06T06:36:33.936Z,99982.56
2023-05-06T06:39:01.375Z,99989.50
2023-05-06T06:41:28.607Z,99986.03
2023-05-06T06:43:55.937Z,99980.63
2023-05-06T06:46:29.522Z,99983.66
2023-05-06T06:48:56.654Z,99979.03
2023-05-06T06:51:26.595Z,99979.75
2023-05-06T06:54:12.384Z,99985.94
2023-05-06T06:56:39.653Z,99998.13
2023-05-06T06:59:07.789Z,99984.84
2023-05-06T07:01:36.276Z,99993.47
2023-05-06T07:04:05.317Z,99998.38
2023-05-06T07:06:36.483Z,100001.19
2023-05-06T07:09:03.596Z,99999.88
2023-05-06T07:11:30.744Z,100004.38
2023-05-06T07:14:00.700Z,99994.63
2023-05-06T07:16:28.273Z,100000.97
2023-05-06T07:18:55.409Z,99995.59
2023-05-06T07:21:22.484Z,99996.91
2023-05-06T07:23:51.854Z,100000.19
2023-05-06T07:26:19.140Z,99995.59
2023-05-06T07:28:46.099Z,99993.28
2023-05-06T07:31:15.628Z,99990.63
2023-05-06T07:33:42.714Z,99989.94
2023-05-06T07:36:12.845Z,99994.59
2023-05-06T07:38:40.034Z,99993.66
2023-05-06T07:41:07.249Z,100003.91
2023-05-06T07:43:34.381Z,99994.13
2023-05-06T07:46:04.944Z,100002.97
2023-05-06T07:48:34.368Z,100003.72
2023-05-06T07:51:01.633Z,99989.13
2023-05-06T07:53:29.124Z,99994.84
2023-05-06T07:56:02.199Z,99989.56
2023-05-06T07:58:30.972Z,99999.53
2023-05-06T08:00:58.580Z,99983.72
2023-05-06T08:03:25.935Z,99996.81
2023-05-06T08:05:55.356Z,99996.63
2023-05-06T08:08:23.590Z,100000.28
2023-05-06T08:10:53.024Z,99992.13
2023-05-06T08:13:20.353Z,100001.78
2023-05-06T08:15:47.640Z,100012.59
2023-05-06T08:18:22.437Z,100012.28
2023-05-06T08:20:51.397Z,100004.72
2023-05-06T08:23:18.613Z,100013.78
2023-05-06T08:25:46.676Z,100003.00
2023-05-06T08:28:13.991Z,100001.06
2023-05-06T08:30:47.750Z,100009.25
2023-05-06T08:33:19.388Z,100012.00
2023-05-06T08:35:47.125Z,100010.53
2023-05-06T08:38:14.341Z,100013.63
2023-05-06T08:40:45.892Z,100024.50
2023-05-06T08:43:17.171Z,99989.91
2023-05-06T08:45:48.269Z,100006.50
2023-05-06T08:48:17.434Z,100013.09
2023-05-06T08:50:49.209Z,100014.22
2023-05-06T08:53:19.456Z,100020.75
2023-05-06T08:55:47.385Z,100009.56
2023-05-06T08:58:17.827Z,100015.44
2023-05-06T09:00:46.434Z,100004.78
2023-05-06T09:03:17.122Z,100005.94
2023-05-06T09:05:46.405Z,100011.88
2023-05-06T09:08:14.697Z,99997.78
2023-05-06T09:10:45.589Z,99980.91
2023-05-06T09:13:14.268Z,99989.31
2023-05-06T09:15:49.913Z,99985.31
2023-05-06T09:18:20.261Z,99988.25
2023-05-06T09:20:49.351Z,99987.06
2023-05-06T09:23:25.579Z,99992.66
2023-05-06T09:25:52.890Z,99998.78
2023-05-06T09:28:21.060Z,100006.97
2023-05-06T09:30:51.132Z,100013.13
2023-05-06T09:33:21.868Z,100011.88
2023-05-06T09:35:50.480Z,100000.34
2023-05-06T09:38:23.764Z,99995.78
2023-05-06T09:40:51.327Z,100010.19
2023-05-06T09:43:21.441Z,99983.28
2023-05-06T09:45:48.962Z,100018.25
2023-05-06T09:51:01.254Z,100003.56
2023-05-06T09:53:29.063Z,100003.66
2023-05-06T09:56:00.472Z,100005.72
2023-05-06T09:58:28.398Z,99992.38
2023-05-06T10:00:58.793Z,100000.53
2023-05-06T10:03:27.634Z,99999.84
2023-05-06T10:05:57.596Z,100000.31
2023-05-06T10:08:28.571Z,100009.84
2023-05-06T10:10:59.520Z,100011.41
2023-05-06T10:13:27.283Z,100008.88
2023-05-06T10:15:54.587Z,100011.72
2023-05-06T10:18:22.490Z,100023.09
2023-05-06T10:20:51.144Z,99998.53
2023-05-06T10:23:39.478Z,100014.34
2023-05-06T10:26:08.110Z,100016.97
2023-05-06T10:28:41.026Z,100007.69
2023-05-06T10:31:15.174Z,100015.69
2023-05-06T10:33:46.879Z,100019.66
2023-05-06T10:36:20.210Z,100015.47
2023-05-06T10:38:55.512Z,100019.34
2023-05-06T10:41:23.898Z,100011.50
2023-05-06T10:43:57.825Z,100023.88
2023-05-06T10:46:28.420Z,100023.97
2023-05-06T10:49:14.288Z,100018.88
2023-05-06T10:51:46.212Z,100029.97
2023-05-06T10:54:19.401Z,100020.47
2023-05-06T10:56:49.799Z,100025.59
2023-05-06T10:59:26.404Z,100026.72
2023-05-06T11:02:09.737Z,100020.38
2023-05-06T11:04:37.766Z,100031.22
2023-05-06T11:07:16.611Z,100017.78
2023-05-06T11:09:58.875Z,100027.25
2023-05-06T11:12:46.184Z,100033.97
2023-05-06T11:15:38.018Z,100012.84
2023-05-06T11:18:27.973Z,100026.88
2023-05-06T11:21:13.545Z,100029.69
2023-05-06T11:23:49.671Z,100030.41
2023-05-06T11:26:16.949Z,100001.81
2023-05-06T11:28:45.638Z,100021.50
2023-05-06T11:31:14.337Z,100021.22
2023-05-06T11:33:55.278Z,100019.56
2023-05-06T11:36:23.009Z,100017.78
2023-05-06T11:38:53.061Z,100009.84
2023-05-06T11:41:23.096Z,100015.84
2023-05-06T11:43:51.648Z,100011.63
2023-05-06T11:46:19.588Z,100015.19
2023-05-06T11:48:47.405Z,100019.88
2023-05-06T11:51:14.804Z,100024.31
2023-05-06T11:53:47.064Z,100003.75
2023-05-06T11:56:17.405Z,100017.50
2023-05-06T11:58:47.281Z,100015.38
2023-05-06T12:01:14.329Z,100023.78
2023-05-06T12:03:44.237Z,100006.28
2023-05-06T12:06:13.201Z,100015.06
2023-05-06T12:08:41.828Z,100007.34
2023-05-06T12:11:09.534Z,100010.22
2023-05-06T12:13:37.850Z,100010.19
2023-05-06T12:16:06.051Z,100012.72
2023-05-06T12:18:33.414Z,100017.16
2023-05-06T12:21:03.878Z,100013.84
2023-05-06T12:23:31.246Z,100003.63
2023-05-06T12:26:04.235Z,100011.81
2023-05-06T12:28:33.039Z,100024.16
2023-05-06T12:31:40.657Z,100015.00
2023-05-06T12:34:08.032Z,100000.06
2023-05-06T12:36:43.206Z,100005.91
2023-05-06T12:39:11.914Z,100012.38
2023-05-06T12:41:57.857Z,100027.88
2023-05-06T12:44:40.324Z,100022.22
2023-05-06T12:47:24.416Z,100027.09
2023-05-06T12:50:01.159Z,100046.88
2023-05-06T12:52:47.722Z,100042.50
2023-05-06T12:55:14.864Z,100037.06
2023-05-06T12:58:01.442Z,100027.00
2023-05-06T13:00:28.834Z,100021.78
2023-05-06T13:02:56.115Z,100036.75
2023-05-06T13:05:23.395Z,100018.94
2023-05-06T13:07:51.343Z,100015.00
2023-05-06T13:10:18.480Z,100005.66
2023-05-06T13:13:04.992Z,100021.09
2023-05-06T13:15:32.371Z,100022.69
2023-05-06T13:17:59.449Z,100004.53
2023-05-06T13:20:27.518Z,100020.72
2023-05-06T13:22:55.332Z,100003.81
2023-05-06T13:25:23.421Z,100022.16
2023-05-06T13:27:50.624Z,100020.38
2023-05-06T13:30:17.730Z,100033.66
2023-05-06T13:33:03.934Z,100044.56
2023-05-06T13:35:33.856Z,100037.09
2023-05-06T13:38:24.933Z,100033.53
2023-05-06T13:40:55.257Z,100040.75
2023-05-06T13:43:24.891Z,100038.84
2023-05-06T13:45:52.578Z,100038.84
2023-05-06T13:48:20.186Z,100041.69
2023-05-06T13:50:49.590Z,100039.56
2023-05-06T13:53:16.754Z,100048.50
2023-05-06T13:55:50.316Z,100056.19
2023-05-06T13:58:17.526Z,100060.34
2023-05-06T14:00:44.980Z,100058.34
2023-05-06T14:03:12.825Z,100065.03
2023-05-06T14:05:40.045Z,100060.50
2023-05-06T14:08:08.367Z,100051.13
2023-05-06T14:10:35.424Z,100061.00
2023-05-06T14:13:03.496Z,100067.25
2023-05-06T14:15:52.043Z,100058.34
2023-05-06T14:18:19.231Z,100037.78
2023-05-06T14:20:46.970Z,100055.22
2023-05-06T14:23:14.373Z,100027.28
2023-05-06T14:26:09.668Z,100049.41
2023-05-06T14:28:40.876Z,100034.59
2023-05-06T14:31:08.009Z,100039.25
2023-05-06T14:33:36.530Z,100031.09
2023-05-06T14:36:11.469Z,100029.13
2023-05-06T14:38:41.518Z,100027.31
2023-05-06T14:41:28.879Z,100060.56
2023-05-06T14:46:59.112Z,100071.88
2023-05-06T14:49:46.443Z,100038.06
2023-05-06T14:52:14.967Z,100070.66
2023-05-06T14:54:42.844Z,100063.94
2023-05-06T14:57:10.599Z,100070.41
2023-05-06T14:59:41.320Z,100066.91
2023-05-06T15:02:09.306Z,100071.09
2023-05-06T15:04:36.860Z,100067.59
2023-05-06T15:07:04.326Z,100061.81
2023-05-06T15:09:31.492Z,100063.66
2023-05-06T15:11:58.793Z,100044.00
2023-05-06T15:14:26.434Z,100057.59
2023-05-06T15:16:57.195Z,100046.34
2023-05-06T15:19:24.636Z,100058.75
2023-05-06T15:21:53.012Z,100071.63
2023-05-06T15:24:20.613Z,100074.03
2023-05-06T15:26:47.789Z,100063.03
2023-05-06T15:29:20.562Z,100066.94
2023-05-06T15:31:48.350Z,100069.91
2023-05-06T15:34:24.743Z,100067.78
2023-05-06T15:36:54.005Z,100065.16
2023-05-06T15:39:21.218Z,100069.88
2023-05-06T15:41:50.993Z,100063.97
2023-05-06T15:44:20.684Z,100060.56
2023-05-06T15:46:48.277Z,100077.06
2023-05-06T15:49:45.709Z,100058.53
2023-05-06T15:52:08.441Z,100065.25
2023-05-06T15:54:38.468Z,100067.13
2023-05-06T15:57:07.188Z,100054.72
2023-05-06T15:59:34.695Z,100067.72
2023-05-06T16:02:26.373Z,100071.41
2023-05-06T16:04:49.047Z,100069.28
2023-05-06T16:07:16.809Z,100080.44
2023-05-06T16:09:44.378Z,100069.09
2023-05-06T16:12:11.415Z,100089.94
2023-05-06T16:14:41.121Z,100078.72
2023-05-06T16:17:09.151Z,100072.19
2023-05-06T16:19:36.233Z,100081.91
2023-05-06T16:22:04.998Z,100086.38
2023-05-06T16:24:32.276Z,100091.06
2023-05-06T16:26:59.493Z,100089.56
2023-05-06T16:29:26.659Z,100093.56
2023-05-06T16:31:53.741Z,100080.16
2023-05-06T16:34:23.984Z,100088.50
2023-05-06T16:36:51.326Z,100108.06
2023-05-06T16:39:18.510Z,100098.00
2023-05-06T16:41:50.661Z,100104.06
2023-05-06T16:44:18.054Z,100080.75
2023-05-06T16:46:45.421Z,100086.94
2023-05-06T16:49:15.242Z,100111.16
2023-05-06T16:51:42.269Z,100102.06
2023-05-06T16:54:09.538Z,100088.25
2023-05-06T16:56:50.901Z,100102.59
2023-05-06T16:59:21.959Z,100114.44
2023-05-06T17:01:50.151Z,100113.94
2023-05-06T17:04:17.404Z,100100.97
2023-05-06T17:06:44.785Z,100091.13
2023-05-06T17:09:14.889Z,100106.31
2023-05-06T17:11:42.055Z,100108.97
2023-05-06T17:14:10.494Z,100110.63
2023-05-06T17:16:40.774Z,100129.63
2023-05-06T17:19:07.948Z,100139.63
2023-05-06T17:21:35.243Z,100119.25
2023-05-06T17:24:02.313Z,100125.41
2023-05-06T17:26:32.183Z,100111.75
2023-05-06T17:29:00.234Z,100129.22
2023-05-06T17:31:27.520Z,100134.56
2023-05-06T17:33:54.792Z,100136.03
2023-05-06T17:36:27.231Z,100147.03
2023-05-06T17:39:04.907Z,100140.34
2023-05-06T17:41:32.714Z,100154.50
2023-05-06T17:43:59.856Z,100161.16
2023-05-06T17:46:27.469Z,100153.31
2023-05-06T17:48:54.820Z,100159.13
2023-05-06T17:51:22.034Z,100157.94
2023-05-06T17:53:49.271Z,100151.44
2023-05-06T17:56:16.791Z,100152.75
2023-05-06T17:58:43.782Z,100156.72
2023-05-06T18:01:11.699Z,100165.06
2023-05-06T18:03:45.062Z,100147.53
2023-05-06T18:06:12.705Z,100165.25
2023-05-06T18:08:39.753Z,100165.72
2023-05-06T18:11:07.175Z,100156.50
2023-05-06T18:13:38.364Z,100162.81
2023-05-06T18:16:05.921Z,100160.25
2023-05-06T18:18:33.204Z,100174.72
2023-05-06T18:21:00.399Z,100175.25
2023-05-06T18:23:29.511Z,100182.41
2023-05-06T18:25:56.931Z,100162.16
2023-05-06T18:28:24.014Z,100188.34
2023-05-06T18:30:51.086Z,100185.84
2023-05-06T18:33:20.366Z,100190.31
2023-05-06T18:35:47.654Z,100188.81
2023-05-06T18:38:15.602Z,100182.88
2023-05-06T18:40:43.954Z,100193.34
2023-05-06T18:43:12.158Z,100191.31
2023-05-06T18:45:41.574Z,100179.03
2023-05-06T18:48:08.919Z,100192.06
2023-05-06T18:50:36.663Z,100184.63
2023-05-06T18:53:04.362Z,100201.22
2023-05-06T18:55:31.560Z,100177.50
2023-05-06T18:57:58.688Z,100189.56
2023-05-06T19:00:26.536Z,100193.16
2023-05-06T19:02:54.281Z,100209.09
2023-05-06T19:05:21.424Z,100201.63
2023-05-06T19:07:48.419Z,100199.16
2023-05-06T19:10:16.128Z,100204.09
2023-05-06T19:12:43.382Z,100184.69
2023-05-06T19:15:12.519Z,100204.63
2023-05-06T19:17:40.023Z,100205.94
2023-05-06T19:20:08.358Z,100191.50
2023-05-06T19:22:35.502Z,100201.22
2023-05-06T19:25:03.121Z,100213.38
2023-05-06T19:27:32.689Z,100204.63
2023-05-06T19:29:59.808Z,100211.31
2023-05-06T19:32:27.007Z,100202.97
2023-05-06T19:34:54.204Z,100198.19
2023-05-06T19:37:21.422Z,100201.16
2023-05-06T19:39:49.768Z,100185.28
2023-05-06T19:42:16.945Z,100204.72
2023-05-06T19:44:44.103Z,100177.53
2023-05-06T19:47:13.556Z,100192.47
2023-05-06T19:49:45.421Z,100197.91
2023-05-06T19:52:13.890Z,100197.13
2023-05-06T19:54:41.466Z,100184.00
2023-05-06T19:57:08.549Z,100198.16
2023-05-06T19:59:35.709Z,100190.56
2023-05-06T20:02:03.086Z,100186.34
2023-05-06T20:04:31.520Z,100204.25
2023-05-06T20:06:58.565Z,100187.44
2023-05-06T20:09:29.289Z,100174.00
2023-05-06T20:11:56.371Z,100195.81
2023-05-06T20:14:25.922Z,100189.50
2023-05-06T20:16:52.993Z,100199.53
2023-05-06T20:19:21.962Z,100199.28
2023-05-06T20:21:52.470Z,100204.06
2023-05-06T20:24:19.642Z,100200.47
2023-05-06T20:26:46.643Z,100206.66
2023-05-06T20:29:13.742Z,100183.75
2023-05-06T20:31:41.077Z,100186.97
2023-05-06T20:34:08.256Z,100192.97
2023-05-06T20:36:35.218Z,100197.91
2023-05-06T20:39:02.586Z,100197.44
2023-05-06T20:41:33.915Z,100209.03
2023-05-06T20:44:01.470Z,100207.13
2023-05-06T20:46:33.052Z,100187.38
2023-05-06T20:49:00.515Z,100216.81
2023-05-06T20:51:28.090Z,100205.66
2023-05-06T20:54:00.392Z,100206.81
2023-05-06T20:56:28.824Z,100216.00
2023-05-06T20:58:56.279Z,100221.31
2023-05-06T21:01:27.369Z,100219.13
2023-05-06T21:03:54.525Z,100219.69
2023-05-06T21:06:21.907Z,100216.31
2023-05-06T21:08:49.079Z,100200.47
2023-05-06T21:11:16.377Z,100216.78
2023-05-06T21:13:43.413Z,100217.63
2023-05-06T21:16:10.597Z,100208.59
2023-05-06T21:18:37.687Z,100222.81
2023-05-06T21:21:04.774Z,100220.31
2023-05-06T21:23:53.958Z,100220.22
2023-05-06T21:26:22.419Z,100231.91
2023-05-06T21:28:52.205Z,100221.03
2023-05-06T21:31:23.785Z,100231.50
2023-05-06T21:33:55.687Z,100223.25
2023-05-06T21:36:22.833Z,100213.66
2023-05-06T21:39:01.097Z,100227.88
2023-05-06T21:41:28.289Z,100223.81
2023-05-06T21:43:55.415Z,100219.81
2023-05-06T21:46:22.521Z,100201.66
2023-05-06T21:48:49.824Z,100226.47
2023-05-06T21:51:16.974Z,100211.56
2023-05-06T21:53:48.815Z,100220.53
2023-05-06T21:56:16.705Z,100210.75
2023-05-06T21:58:44.072Z,100232.13
2023-05-06T22:01:11.524Z,100235.44
2023-05-06T22:03:38.708Z,100235.88
2023-05-06T22:06:06.846Z,100227.47
2023-05-06T22:08:34.203Z,100229.44
2023-05-06T22:11:04.609Z,100234.72
2023-05-06T22:13:31.757Z,100229.47
2023-05-06T22:15:59.093Z,100221.09
2023-05-06T22:18:28.013Z,100225.97
2023-05-06T22:20:56.949Z,100231.13
2023-05-06T22:23:24.665Z,100216.50
2023-05-06T22:25:52.280Z,100205.91
2023-05-06T22:28:20.138Z,100232.53
2023-05-06T22:30:49.602Z,100238.81
2023-05-06T22:33:16.742Z,100230.44
2023-05-06T22:35:44.186Z,100239.38
2023-05-06T22:38:11.529Z,100233.66
2023-05-06T22:40:45.899Z,100238.66
2023-05-06T22:43:12.993Z,100238.53
2023-05-06T22:45:41.758Z,100253.44
2023-05-06T22:48:09.036Z,100222.91
2023-05-06T22:50:36.664Z,100220.69
2023-05-06T22:53:13.677Z,100240.63
2023-05-06T22:55:42.703Z,100255.13
2023-05-06T22:58:10.042Z,100259.72
2023-05-06T23:00:37.374Z,100257.38
2023-05-06T23:03:06.906Z,100241.47
2023-05-06T23:05:34.005Z,100257.63
2023-05-06T23:08:10.263Z,100258.03
2023-05-06T23:10:37.353Z,100259.56
2023-05-06T23:13:04.541Z,100261.94
2023-05-06T23:15:31.836Z,100249.66
2023-05-06T23:17:59.061Z,100248.00
2023-05-06T23:20:26.365Z,100261.25
2023-05-06T23:22:53.493Z,100262.47
2023-05-06T23:25:23.272Z,100259.13
2023-05-06T23:27:50.426Z,100259.69
2023-05-06T23:30:17.505Z,100257.00
2023-05-06T23:32:45.061Z,100262.34
2023-05-06T23:35:12.295Z,100253.81
2023-05-06T23:37:41.910Z,100253.09
2023-05-06T23:40:09.561Z,100253.81
2023-05-06T23:42:37.934Z,100256.88
2023-05-06T23:45:05.774Z,100258.56
2023-05-06T23:47:36.667Z,100253.53
2023-05-06T23:50:07.233Z,100255.19
2023-05-06T23:52:38.315Z,100258.25
2023-05-06T23:55:06.236Z,100262.44
2023-05-06T23:57:33.357Z,100265.34
